Crosby Mariner — WDE6265 — position and weather

sailwx.info

Track history (hours):
 
Tides and Currents Weather Stations Pressure Air Temp Water Temp Dewpoint Dewpoint Depression Visibility Wind Speed Wind Dir Waves Ship Positions

Crosby Mariner

Owner: Crosby Marine Transportation LLC, Golden Meadow, LA. More information available from US FCC via Universal Licensing System and Coast Guard Vessel Documentation Center.

Last reported at 2018-May-19 09:17 UTC. Time now 2018-May-20 17:50 UTC.
Position N 29°32' W 090°50'.

Length 9 m; draft 3 m.

Type: . MMSI: 367378040.

Date/timePositionNaut miles runAvg speedWind from/ knotsBaromVisibWave heightAir tempDewpointWater temp
2018-May-19 09:17N 29°32' W 090°50'2 7.1
2018-May-19 09:00N 29°32' W 090°48'3 6.0
2018-May-19 08:30N 29°34' W 090°45'2 4.0
2018-May-19 08:00N 29°34' W 090°43'3 6.2
2018-May-19 07:30N 29°30' W 090°43'4 6.9
2018-May-19 07:00N 29°27' W 090°43'2 1.1
2018-May-19 04:43N 29°25' W 090°44'1 6.2
2018-May-19 04:30N 29°26' W 090°43'3 5.8
2018-May-19 04:00N 29°29' W 090°43'3 6.1
2018-May-19 03:30N 29°32' W 090°42'2 4.7
2018-May-19 03:00N 29°34' W 090°43'2 3.7
2018-May-19 02:30N 29°34' W 090°45'1 1.2
2018-May-19 01:58N 29°33' W 090°45'1 1.2
2018-May-19 01:28N 29°32' W 090°46'2 4.7
2018-May-19 01:00N 29°32' W 090°48'32 2.2
2018-May-18 10:00N 29°22' W 091°23'4 8.3
2018-May-18 09:29N 29°18' W 091°26'4 7.7
2018-May-18 09:00N 29°16' W 091°29'4 7.8
2018-May-18 08:30N 29°12' W 091°32'1 1.7
2018-May-18 07:58N 29°13' W 091°31'2 4.9
2018-May-18 07:29N 29°15' W 091°29'2 4.8
2018-May-18 07:00N 29°17' W 091°28'3 4.8
2018-May-18 06:26N 29°19' W 091°26'5 6.5
2018-May-18 05:44N 29°23' W 091°23'7 8.2
2018-May-18 04:49N 29°28' W 091°17'  
2018-May-12 09:13N 29°32' W 090°50'1 4.6
2018-May-12 08:55N 29°32' W 090°49'2 4.4
2018-May-12 08:30N 29°32' W 090°47'2 3.9
2018-May-12 08:00N 29°34' W 090°45'2 3.5
2018-May-12 07:31N 29°34' W 090°43'2 3.1
2018-May-12 07:00N 29°33' W 090°42'2 4.6
2018-May-12 06:29N 29°30' W 090°43'2 4.7
2018-May-12 06:00N 29°28' W 090°43'4 0.5
2018-May-11 22:31N 29°24' W 090°44'0 5.3
2018-May-11 22:28N 29°25' W 090°44'3 5.4
2018-May-11 22:00N 29°27' W 090°43'3 5.9
2018-May-11 21:28N 29°30' W 090°43'3 6.3
2018-May-11 21:00N 29°33' W 090°42'2 3.9
2018-May-11 20:30N 29°34' W 090°44'4 7.6
2018-May-11 20:00N 29°32' W 090°48'5 8.7
2018-May-11 19:29N 29°33' W 090°54'3 0.1
2018-May-10 22:27N 29°32' W 090°50'3 7.5
2018-May-10 22:00N 29°32' W 090°46'3 5.5
2018-May-10 21:30N 29°34' W 090°44'2 3.8
2018-May-10 21:01N 29°33' W 090°42'0 0.4
2018-May-10 20:28N 29°33' W 090°42'0 0.0
2018-May-10 19:58N 29°33' W 090°42'0 0.0
2018-May-10 19:28N 29°33' W 090°42'0 0.0
2018-May-10 18:58N 29°33' W 090°42'0 0.0
2018-May-10 18:28N 29°33' W 090°42'0 0.0
2018-May-10 17:58N 29°33' W 090°42'0 0.0
2018-May-10 17:28N 29°33' W 090°42'0 0.0
2018-May-10 16:58N 29°33' W 090°42'0 0.0
2018-May-10 16:22N 29°33' W 090°42'0 0.0
2018-May-10 15:58N 29°33' W 090°42'0 0.0
2018-May-10 15:28N 29°33' W 090°42'0 0.0
2018-May-10 14:58N 29°33' W 090°42'0 0.0
2018-May-10 14:28N 29°33' W 090°42'0 0.1
2018-May-10 13:58N 29°33' W 090°42'0 0.0
2018-May-10 13:28N 29°33' W 090°42'0 0.0
2018-May-10 12:55N 29°33' W 090°42'0 0.0
2018-May-10 12:28N 29°33' W 090°42'0 0.0
2018-May-10 11:58N 29°33' W 090°42'0 0.0
2018-May-10 11:28N 29°33' W 090°42'0 0.0
2018-May-10 10:58N 29°33' W 090°42'0 0.0
2018-May-10 10:28N 29°33' W 090°42'0 0.0
2018-May-10 09:58N 29°33' W 090°42'0 0.0
2018-May-10 09:28N 29°33' W 090°42'0 0.0
2018-May-10 08:58N 29°33' W 090°42'0 0.0
2018-May-10 08:28N 29°33' W 090°42'0 0.0
2018-May-10 07:58N 29°33' W 090°42'0 0.0
2018-May-10 07:28N 29°33' W 090°42'0 0.0
2018-May-10 06:58N 29°33' W 090°42'0 0.0
2018-May-10 06:28N 29°33' W 090°42'0 0.0
2018-May-10 05:58N 29°33' W 090°42'0 0.0
2018-May-10 05:28N 29°33' W 090°42'0 0.0
2018-May-10 04:58N 29°33' W 090°42'0 0.0
2018-May-10 04:28N 29°33' W 090°42'0 0.0
2018-May-10 03:58N 29°33' W 090°42'0 0.0
2018-May-10 03:28N 29°33' W 090°42'0 0.0
2018-May-10 02:58N 29°33' W 090°42'0 0.0
2018-May-10 02:28N 29°33' W 090°42'0 0.0
2018-May-10 01:58N 29°33' W 090°42'0 0.0
2018-May-10 01:28N 29°33' W 090°42'0 0.0
2018-May-10 00:58N 29°33' W 090°42'0 0.0
2018-May-10 00:28N 29°33' W 090°42'0 0.0
2018-May-09 23:58N 29°33' W 090°42'0 0.0
2018-May-09 23:28N 29°33' W 090°42'0 0.0
2018-May-09 22:58N 29°33' W 090°42'0 0.0
2018-May-09 22:28N 29°33' W 090°42'0 0.0
2018-May-09 21:58N 29°33' W 090°42'0 0.0
2018-May-09 21:28N 29°33' W 090°42'0 0.0
2018-May-09 20:58N 29°33' W 090°42'0 0.0
2018-May-09 20:28N 29°33' W 090°42'0 0.0
2018-May-09 19:58N 29°33' W 090°42'0 0.0
2018-May-09 19:28N 29°33' W 090°42'0 0.0
2018-May-09 18:55N 29°33' W 090°42'0 0.0
2018-May-09 18:28N 29°33' W 090°42'0 0.0
2018-May-09 17:58N 29°33' W 090°42'0 0.0
2018-May-09 17:28N 29°33' W 090°42'0 0.0
2018-May-09 16:58N 29°33' W 090°42'0 0.0
2018-May-09 16:28N 29°33' W 090°42'0 0.0
2018-May-09 15:58N 29°33' W 090°42'0 0.0
2018-May-09 15:28N 29°33' W 090°42'0 0.0
2018-May-09 14:58N 29°33' W 090°42'0 0.0
2018-May-09 14:28N 29°33' W 090°42'0 0.0
2018-May-09 13:58N 29°33' W 090°42'0 0.0
2018-May-09 13:25N 29°33' W 090°42'0 0.0
2018-May-09 12:58N 29°33' W 090°42'0 0.0
2018-May-09 12:30N 29°33' W 090°42'0 0.0
2018-May-09 12:00N 29°33' W 090°42'0 0.0
2018-May-09 11:30N 29°33' W 090°42'0 0.0
2018-May-09 11:00N 29°33' W 090°42'0 0.0
2018-May-09 10:30N 29°33' W 090°42'0 0.0
2018-May-09 10:00N 29°33' W 090°42'0 0.0
2018-May-09 09:30N 29°33' W 090°42'  
Track history (hours):
 
Tides and Currents Weather Stations Pressure Air Temp Water Temp Dewpoint Dewpoint Depression Visibility Wind Speed Wind Dir Waves Ship Positions

Crosby Mariner

Owner: Crosby Marine Transportation LLC, Golden Meadow, LA. More information available from US FCC via Universal Licensing System and Coast Guard Vessel Documentation Center.

Last reported at 2018-May-19 09:17 UTC. Time now 2018-May-20 17:50 UTC.
Position N 29°32' W 090°50'.

Length 9 m; draft 3 m.

Type: . MMSI: 367378040.

Date/timePositionNaut miles runAvg speedWind from/ knotsBaromVisibWave heightAir tempDewpointWater temp
2018-May-19 09:17N 29°32' W 090°50'2 7.1
2018-May-19 09:00N 29°32' W 090°48'3 6.0
2018-May-19 08:30N 29°34' W 090°45'2 4.0
2018-May-19 08:00N 29°34' W 090°43'3 6.2
2018-May-19 07:30N 29°30' W 090°43'4 6.9
2018-May-19 07:00N 29°27' W 090°43'2 1.1
2018-May-19 04:43N 29°25' W 090°44'1 6.2
2018-May-19 04:30N 29°26' W 090°43'3 5.8
2018-May-19 04:00N 29°29' W 090°43'3 6.1
2018-May-19 03:30N 29°32' W 090°42'2 4.7
2018-May-19 03:00N 29°34' W 090°43'2 3.7
2018-May-19 02:30N 29°34' W 090°45'1 1.2
2018-May-19 01:58N 29°33' W 090°45'1 1.2
2018-May-19 01:28N 29°32' W 090°46'2 4.7
2018-May-19 01:00N 29°32' W 090°48'32 2.2
2018-May-18 10:00N 29°22' W 091°23'4 8.3
2018-May-18 09:29N 29°18' W 091°26'4 7.7
2018-May-18 09:00N 29°16' W 091°29'4 7.8
2018-May-18 08:30N 29°12' W 091°32'1 1.7
2018-May-18 07:58N 29°13' W 091°31'2 4.9
2018-May-18 07:29N 29°15' W 091°29'2 4.8
2018-May-18 07:00N 29°17' W 091°28'3 4.8
2018-May-18 06:26N 29°19' W 091°26'5 6.5
2018-May-18 05:44N 29°23' W 091°23'7 8.2
2018-May-18 04:49N 29°28' W 091°17'  
2018-May-12 09:13N 29°32' W 090°50'1 4.6
2018-May-12 08:55N 29°32' W 090°49'2 4.4
2018-May-12 08:30N 29°32' W 090°47'2 3.9
2018-May-12 08:00N 29°34' W 090°45'2 3.5
2018-May-12 07:31N 29°34' W 090°43'2 3.1
2018-May-12 07:00N 29°33' W 090°42'2 4.6
2018-May-12 06:29N 29°30' W 090°43'2 4.7
2018-May-12 06:00N 29°28' W 090°43'4 0.5
2018-May-11 22:31N 29°24' W 090°44'0 5.3
2018-May-11 22:28N 29°25' W 090°44'3 5.4
2018-May-11 22:00N 29°27' W 090°43'3 5.9
2018-May-11 21:28N 29°30' W 090°43'3 6.3
2018-May-11 21:00N 29°33' W 090°42'2 3.9
2018-May-11 20:30N 29°34' W 090°44'4 7.6
2018-May-11 20:00N 29°32' W 090°48'5 8.7
2018-May-11 19:29N 29°33' W 090°54'3 0.1
2018-May-10 22:27N 29°32' W 090°50'3 7.5
2018-May-10 22:00N 29°32' W 090°46'3 5.5
2018-May-10 21:30N 29°34' W 090°44'2 3.8
2018-May-10 21:01N 29°33' W 090°42'0 0.4
2018-May-10 20:28N 29°33' W 090°42'0 0.0
2018-May-10 19:58N 29°33' W 090°42'0 0.0
2018-May-10 19:28N 29°33' W 090°42'0 0.0
2018-May-10 18:58N 29°33' W 090°42'0 0.0
2018-May-10 18:28N 29°33' W 090°42'0 0.0
2018-May-10 17:58N 29°33' W 090°42'0 0.0
2018-May-10 17:28N 29°33' W 090°42'0 0.0
2018-May-10 16:58N 29°33' W 090°42'0 0.0
2018-May-10 16:22N 29°33' W 090°42'0 0.0
2018-May-10 15:58N 29°33' W 090°42'0 0.0
2018-May-10 15:28N 29°33' W 090°42'0 0.0
2018-May-10 14:58N 29°33' W 090°42'0 0.0
2018-May-10 14:28N 29°33' W 090°42'0 0.1
2018-May-10 13:58N 29°33' W 090°42'0 0.0
2018-May-10 13:28N 29°33' W 090°42'0 0.0
2018-May-10 12:55N 29°33' W 090°42'0 0.0
2018-May-10 12:28N 29°33' W 090°42'0 0.0
2018-May-10 11:58N 29°33' W 090°42'0 0.0
2018-May-10 11:28N 29°33' W 090°42'0 0.0
2018-May-10 10:58N 29°33' W 090°42'0 0.0
2018-May-10 10:28N 29°33' W 090°42'0 0.0
2018-May-10 09:58N 29°33' W 090°42'0 0.0
2018-May-10 09:28N 29°33' W 090°42'0 0.0
2018-May-10 08:58N 29°33' W 090°42'0 0.0
2018-May-10 08:28N 29°33' W 090°42'0 0.0
2018-May-10 07:58N 29°33' W 090°42'0 0.0
2018-May-10 07:28N 29°33' W 090°42'0 0.0
2018-May-10 06:58N 29°33' W 090°42'0 0.0
2018-May-10 06:28N 29°33' W 090°42'0 0.0
2018-May-10 05:58N 29°33' W 090°42'0 0.0
2018-May-10 05:28N 29°33' W 090°42'0 0.0
2018-May-10 04:58N 29°33' W 090°42'0 0.0
2018-May-10 04:28N 29°33' W 090°42'0 0.0
2018-May-10 03:58N 29°33' W 090°42'0 0.0
2018-May-10 03:28N 29°33' W 090°42'0 0.0
2018-May-10 02:58N 29°33' W 090°42'0 0.0
2018-May-10 02:28N 29°33' W 090°42'0 0.0
2018-May-10 01:58N 29°33' W 090°42'0 0.0
2018-May-10 01:28N 29°33' W 090°42'0 0.0
2018-May-10 00:58N 29°33' W 090°42'0 0.0
2018-May-10 00:28N 29°33' W 090°42'0 0.0
2018-May-09 23:58N 29°33' W 090°42'0 0.0
2018-May-09 23:28N 29°33' W 090°42'0 0.0
2018-May-09 22:58N 29°33' W 090°42'0 0.0
2018-May-09 22:28N 29°33' W 090°42'0 0.0
2018-May-09 21:58N 29°33' W 090°42'0 0.0
2018-May-09 21:28N 29°33' W 090°42'0 0.0
2018-May-09 20:58N 29°33' W 090°42'0 0.0
2018-May-09 20:28N 29°33' W 090°42'0 0.0
2018-May-09 19:58N 29°33' W 090°42'0 0.0
2018-May-09 19:28N 29°33' W 090°42'0 0.0
2018-May-09 18:55N 29°33' W 090°42'0 0.0
2018-May-09 18:28N 29°33' W 090°42'0 0.0
2018-May-09 17:58N 29°33' W 090°42'0 0.0
2018-May-09 17:28N 29°33' W 090°42'0 0.0
2018-May-09 16:58N 29°33' W 090°42'0 0.0
2018-May-09 16:28N 29°33' W 090°42'0 0.0
2018-May-09 15:58N 29°33' W 090°42'0 0.0
2018-May-09 15:28N 29°33' W 090°42'0 0.0
2018-May-09 14:58N 29°33' W 090°42'0 0.0
2018-May-09 14:28N 29°33' W 090°42'0 0.0
2018-May-09 13:58N 29°33' W 090°42'0 0.0
2018-May-09 13:25N 29°33' W 090°42'0 0.0
2018-May-09 12:58N 29°33' W 090°42'0 0.0
2018-May-09 12:30N 29°33' W 090°42'0 0.0
2018-May-09 12:00N 29°33' W 090°42'0 0.0
2018-May-09 11:30N 29°33' W 090°42'0 0.0
2018-May-09 11:00N 29°33' W 090°42'0 0.0
2018-May-09 10:30N 29°33' W 090°42'0 0.0
2018-May-09 10:00N 29°33' W 090°42'0 0.0
2018-May-09 09:30N 29°33' W 090°42'  

Dump ship's entire track history